createdAt,value
2019-02-15T00:00:56.376Z,1.90
2019-02-15T00:01:56.370Z,2.02
2019-02-15T00:02:56.350Z,2.02
2019-02-15T00:03:56.340Z,1.99
2019-02-15T00:04:56.326Z,1.98
2019-02-15T00:05:56.351Z,1.89
2019-02-15T00:06:56.304Z,1.97
2019-02-15T00:07:56.297Z,2.12
2019-02-15T00:08:56.279Z,2.02
2019-02-15T00:09:56.269Z,2.10
2019-02-15T00:10:56.255Z,2.04
2019-02-15T00:11:56.254Z,1.98
2019-02-15T00:12:56.233Z,1.73
2019-02-15T00:13:56.223Z,1.68
2019-02-15T00:14:56.219Z,1.83
2019-02-15T00:15:56.196Z,2.01
2019-02-15T00:16:56.219Z,1.93
2019-02-15T00:17:56.195Z,1.98
2019-02-15T00:18:56.434Z,1.94
2019-02-15T00:19:56.143Z,1.97
2019-02-15T00:20:56.135Z,2.06
2019-02-15T00:21:56.130Z,2.06
2019-02-15T00:22:56.107Z,1.97
2019-02-15T00:23:56.147Z,2.08
2019-02-15T00:24:56.090Z,2.10
2019-02-15T00:25:56.095Z,2.15
2019-02-15T00:26:56.199Z,2.13
2019-02-15T00:27:56.072Z,2.23
2019-02-15T00:28:56.036Z,2.15
2019-02-15T00:29:56.017Z,2.12
2019-02-15T00:31:04.650Z,2.16
2019-02-15T00:33:01.518Z,2.04
2019-02-15T00:34:01.471Z,1.94
2019-02-15T00:35:01.463Z,2.10
2019-02-15T00:36:01.439Z,1.99
2019-02-15T00:37:01.430Z,2.02
2019-02-15T00:38:01.427Z,1.94
2019-02-15T00:39:01.408Z,1.73
2019-02-15T00:40:01.390Z,1.60
2019-02-15T00:41:01.382Z,1.64
2019-02-15T00:42:01.367Z,1.65
2019-02-15T00:43:01.354Z,1.78
2019-02-15T00:44:01.335Z,1.75
2019-02-15T00:45:01.340Z,1.78
2019-02-15T00:46:01.322Z,1.82
2019-02-15T00:47:01.341Z,1.80
2019-02-15T00:48:01.304Z,1.79
2019-02-15T00:49:01.293Z,1.87
2019-02-15T00:50:01.274Z,1.89
2019-02-15T00:51:01.285Z,1.78
2019-02-15T00:52:01.315Z,1.87
2019-02-15T00:53:01.224Z,1.71
2019-02-15T00:54:01.214Z,1.68
2019-02-15T00:55:01.205Z,1.64
2019-02-15T00:56:01.220Z,1.68
2019-02-15T00:57:01.178Z,1.64
2019-02-15T00:58:01.183Z,1.76
2019-02-15T00:59:01.193Z,1.72
2019-02-15T01:00:01.209Z,1.78
2019-02-15T01:01:01.152Z,1.78
2019-02-15T01:02:01.120Z,1.75
2019-02-15T01:03:01.108Z,1.72
2019-02-15T01:04:01.130Z,1.69
2019-02-15T01:05:01.090Z,1.61
2019-02-15T01:06:01.076Z,1.60
2019-02-15T01:07:01.056Z,1.72
2019-02-15T01:08:01.042Z,1.68
2019-02-15T01:09:01.089Z,1.64
2019-02-15T01:10:01.016Z,1.62
2019-02-15T01:11:01.000Z,1.64
2019-02-15T01:12:00.999Z,1.68
2019-02-15T01:13:00.971Z,1.61
2019-02-15T01:14:00.986Z,1.52
2019-02-15T01:15:00.951Z,1.52
2019-02-15T01:16:00.940Z,1.62
2019-02-15T01:17:00.942Z,1.64
2019-02-15T01:18:00.911Z,1.64
2019-02-15T01:19:00.924Z,1.69
2019-02-15T01:20:00.902Z,1.58
2019-02-15T01:21:00.879Z,1.55
2019-02-15T01:22:00.872Z,1.54
2019-02-15T01:23:00.861Z,1.55
2019-02-15T01:24:00.857Z,1.50
2019-02-15T01:25:00.867Z,1.52
2019-02-15T01:26:00.817Z,1.57
2019-02-15T01:27:00.805Z,1.58
2019-02-15T01:28:00.797Z,1.55
2019-02-15T01:29:00.777Z,1.55
2019-02-15T01:30:00.768Z,1.52
2019-02-15T01:31:00.760Z,1.52
2019-02-15T01:32:00.742Z,1.32
2019-02-15T01:33:00.730Z,1.06
2019-02-15T01:34:00.721Z,1.14
2019-02-15T01:35:00.700Z,1.07
2019-02-15T01:36:00.699Z,0.76
2019-02-15T01:37:00.689Z,0.80
2019-02-15T01:38:00.663Z,0.79
2019-02-15T01:39:00.654Z,0.89
2019-02-15T01:40:00.637Z,0.98
2019-02-15T01:41:00.641Z,1.16
2019-02-15T01:42:00.605Z,1.18
2019-02-15T01:43:00.601Z,1.19
2019-02-15T01:44:00.605Z,1.19
2019-02-15T01:45:00.607Z,1.32
2019-02-15T01:46:00.564Z,1.24
2019-02-15T01:47:00.563Z,1.36
2019-02-15T01:48:00.538Z,1.34
2019-02-15T01:49:00.519Z,1.43
2019-02-15T01:50:00.504Z,1.37
2019-02-15T01:51:00.496Z,1.24
2019-02-15T01:52:00.492Z,0.88
2019-02-15T01:53:00.482Z,0.79
2019-02-15T01:54:00.455Z,0.79
2019-02-15T01:55:00.462Z,0.67
2019-02-15T01:56:00.436Z,0.67
2019-02-15T01:57:00.419Z,0.61
2019-02-15T01:58:00.404Z,0.67
2019-02-15T01:59:00.402Z,0.88
2019-02-15T02:00:00.385Z,0.96
2019-02-15T02:01:00.387Z,0.94
2019-02-15T02:02:00.350Z,0.97
2019-02-15T02:03:00.342Z,0.94
2019-02-15T02:04:00.332Z,0.97
2019-02-15T02:05:00.324Z,1.00
2019-02-15T02:06:00.350Z,0.97
2019-02-15T02:07:00.283Z,0.98
2019-02-15T02:08:00.281Z,1.10
2019-02-15T02:09:00.270Z,0.89
2019-02-15T02:10:00.254Z,0.82
2019-02-15T02:11:00.246Z,0.60
2019-02-15T02:12:00.230Z,0.41
2019-02-15T02:13:00.211Z,0.39
2019-02-15T02:14:00.198Z,0.23
2019-02-15T02:15:00.443Z,0.33
2019-02-15T02:16:00.208Z,0.48
2019-02-15T02:17:00.164Z,0.51
2019-02-15T02:18:00.147Z,0.48
2019-02-15T02:19:00.136Z,0.71
2019-02-15T02:20:00.170Z,0.70
2019-02-15T02:21:00.119Z,0.82
2019-02-15T02:22:00.100Z,0.79
2019-02-15T02:23:01.732Z,0.85
2019-02-15T02:24:00.078Z,0.78
2019-02-15T02:25:00.067Z,0.79
2019-02-15T02:26:00.039Z,0.79
2019-02-15T02:27:00.028Z,0.83
2019-02-15T02:28:00.017Z,0.85
2019-02-15T02:29:00.004Z,0.60
2019-02-15T02:29:59.991Z,0.75
2019-02-15T02:30:59.979Z,0.75
2019-02-15T02:31:59.964Z,0.78
2019-02-15T02:32:59.951Z,0.78
2019-02-15T02:33:59.936Z,0.78
2019-02-15T02:34:59.965Z,0.79
2019-02-15T02:35:59.918Z,0.88
2019-02-15T02:36:59.915Z,0.79
2019-02-15T02:37:59.887Z,0.78
2019-02-15T02:38:59.877Z,0.68
2019-02-15T02:39:59.867Z,0.43
2019-02-15T02:40:59.845Z,0.64
2019-02-15T02:41:59.840Z,0.67
2019-02-15T02:42:59.817Z,0.76
2019-02-15T02:44:00.185Z,0.79
2019-02-15T02:44:59.798Z,0.80
2019-02-15T02:45:59.779Z,0.79
2019-02-15T02:46:59.773Z,0.80
2019-02-15T02:47:59.760Z,0.86
2019-02-15T02:48:59.744Z,0.76
2019-02-15T02:49:59.727Z,0.78
2019-02-15T02:50:59.719Z,0.76
2019-02-15T02:51:59.713Z,0.76
2019-02-15T02:52:59.685Z,0.80
2019-02-15T02:53:59.670Z,0.85
2019-02-15T02:54:59.661Z,0.80
2019-02-15T03:14:10.699Z,0.80
2019-02-15T03:15:00.592Z,0.79
2019-02-15T03:16:00.410Z,0.53
2019-02-15T03:17:00.382Z,0.68
2019-02-15T03:18:00.400Z,0.62
2019-02-15T03:19:00.353Z,0.71
2019-02-15T03:20:00.589Z,0.60
2019-02-15T03:21:00.318Z,0.61
2019-02-15T03:22:00.308Z,0.67
2019-02-15T03:23:00.296Z,0.68
2019-02-15T03:24:00.274Z,0.70
2019-02-15T03:25:00.340Z,0.65
2019-02-15T03:26:00.243Z,0.61
2019-02-15T03:27:00.234Z,0.61
2019-02-15T03:28:00.217Z,0.76
2019-02-15T03:29:00.206Z,0.62
2019-02-15T03:30:00.604Z,0.68
2019-02-15T03:31:00.177Z,0.57
2019-02-15T03:32:00.163Z,0.62
2019-02-15T03:33:00.172Z,0.65
2019-02-15T03:34:00.153Z,0.61
2019-02-15T03:35:00.124Z,0.71
2019-02-15T03:36:00.109Z,0.57
2019-02-15T03:37:00.092Z,0.61
2019-02-15T03:38:00.083Z,0.61
2019-02-15T03:39:00.065Z,0.61
2019-02-15T03:40:00.053Z,0.70
2019-02-15T03:41:00.261Z,0.64
2019-02-15T03:42:00.025Z,0.57
2019-02-15T03:43:00.010Z,0.48
2019-02-15T03:44:00.019Z,0.62
2019-02-15T03:44:59.989Z,0.53
2019-02-15T03:45:59.967Z,0.43
2019-02-15T03:46:59.958Z,0.53
2019-02-15T03:47:59.947Z,0.42
2019-02-15T03:48:59.932Z,0.58
2019-02-15T03:49:59.919Z,0.60
2019-02-15T03:50:59.907Z,0.57
2019-02-15T03:51:59.891Z,0.61
2019-02-15T03:52:59.876Z,0.30
2019-02-15T03:53:59.868Z,0.24
2019-02-15T03:54:59.867Z,0.31
2019-02-15T03:55:59.832Z,0.34
2019-02-15T03:56:59.821Z,0.42
2019-02-15T03:57:59.811Z,0.36
2019-02-15T03:58:59.797Z,0.41
2019-02-15T03:59:59.776Z,0.34
2019-02-15T04:00:59.770Z,0.34
2019-02-15T04:01:59.756Z,0.33
2019-02-15T04:02:59.741Z,0.33
2019-02-15T04:03:59.734Z,0.27
2019-02-15T04:04:59.713Z,0.10
2019-02-15T04:05:59.813Z,-0.01
2019-02-15T04:06:59.702Z,0.20
2019-02-15T04:07:59.676Z,0.12
2019-02-15T04:08:59.674Z,-0.06
2019-02-15T04:09:59.645Z,0.00
2019-02-15T04:10:59.654Z,-0.04
2019-02-15T04:11:59.623Z,-0.15
2019-02-15T04:12:59.609Z,-0.37
2019-02-15T04:13:59.609Z,-0.34
2019-02-15T04:14:59.578Z,-0.26
2019-02-15T04:15:59.582Z,-0.18
2019-02-15T04:16:59.562Z,-0.18
2019-02-15T04:17:59.592Z,-0.01
2019-02-15T04:18:59.535Z,0.00
2019-02-15T04:19:59.517Z,0.00
2019-02-15T04:20:59.523Z,-0.04
2019-02-15T04:21:59.483Z,0.03
2019-02-15T04:22:59.489Z,0.07
2019-02-15T04:23:59.461Z,0.05
2019-02-15T04:24:59.458Z,0.12
2019-02-15T04:25:59.435Z,0.02
2019-02-15T04:26:59.423Z,0.00
2019-02-15T04:27:59.568Z,0.09
2019-02-15T04:28:59.406Z,0.10
2019-02-15T04:29:59.378Z,0.09
2019-02-15T04:30:59.370Z,0.03
2019-02-15T04:31:59.377Z,0.13
2019-02-15T04:32:59.337Z,0.15
2019-02-15T04:33:59.324Z,0.16
2019-02-15T04:34:59.306Z,0.21
2019-02-15T04:35:59.296Z,0.28
2019-02-15T04:36:59.356Z,0.31
2019-02-15T04:37:59.269Z,0.31
2019-02-15T04:38:59.262Z,0.30
2019-02-15T04:39:59.271Z,-0.19
2019-02-15T04:40:59.249Z,-0.22
2019-02-15T04:41:59.227Z,-0.27
2019-02-15T04:42:59.239Z,-0.44
2019-02-15T04:43:59.191Z,-0.27
2019-02-15T04:44:59.190Z,-0.23
2019-02-15T04:45:59.170Z,-0.16
2019-02-15T04:46:59.141Z,-0.42
2019-02-15T04:47:59.134Z,-0.47
2019-02-15T04:48:59.130Z,-0.45
2019-02-15T04:49:59.102Z,-0.50
2019-02-15T04:50:59.098Z,-0.47
2019-02-15T04:51:59.082Z,-0.54
2019-02-15T04:52:59.084Z,-0.41
2019-02-15T04:53:59.080Z,-0.26
2019-02-15T04:54:59.077Z,-0.26
2019-02-15T04:55:59.026Z,-0.27
2019-02-15T04:56:59.012Z,-0.15
2019-02-15T04:57:59.024Z,-0.04
2019-02-15T04:58:58.987Z,-0.22
2019-02-15T04:59:58.991Z,-0.45
2019-02-15T05:00:58.964Z,-0.52
2019-02-15T05:01:58.935Z,-0.70
2019-02-15T05:02:58.929Z,-0.50
2019-02-15T05:03:58.907Z,-0.50
2019-02-15T05:04:58.892Z,-0.54
2019-02-15T05:05:58.882Z,-0.62
2019-02-15T05:06:58.873Z,-0.34
2019-02-15T05:07:58.858Z,-0.24
2019-02-15T05:08:58.841Z,-0.22
2019-02-15T05:09:58.832Z,-0.11
2019-02-15T05:10:58.893Z,-0.08
2019-02-15T05:11:58.799Z,-0.13
2019-02-15T05:12:58.782Z,-0.19
2019-02-15T05:13:58.789Z,-0.06
2019-02-15T05:14:58.762Z,-0.12
2019-02-15T05:15:58.739Z,-0.08
2019-02-15T05:16:58.734Z,-0.19
2019-02-15T05:17:58.716Z,-0.06
2019-02-15T05:18:58.704Z,-0.08
2019-02-15T05:19:58.720Z,-0.09
2019-02-15T05:20:58.672Z,-0.09
2019-02-15T05:21:58.659Z,-0.18
2019-02-15T05:22:58.648Z,-0.04
2019-02-15T05:23:58.630Z,-0.12
2019-02-15T05:24:58.624Z,0.02
2019-02-15T05:25:58.607Z,-0.06
2019-02-15T05:26:58.591Z,0.00
2019-02-15T05:27:58.578Z,-0.04
2019-02-15T05:28:58.566Z,-0.01
2019-02-15T05:30:05.724Z,0.10
2019-02-15T05:32:02.524Z,-0.04
2019-02-15T05:33:02.492Z,0.05
2019-02-15T05:35:07.102Z,-0.04
2019-02-15T05:36:06.437Z,0.07
2019-02-15T05:37:06.438Z,0.06
2019-02-15T05:38:06.534Z,-0.01
2019-02-15T05:39:06.405Z,0.09
2019-02-15T05:40:06.376Z,-0.04
2019-02-15T05:41:06.366Z,0.02
2019-02-15T05:42:06.478Z,0.05
2019-02-15T05:43:06.330Z,0.00
2019-02-15T05:44:06.415Z,-0.01
2019-02-15T05:45:06.330Z,-0.11
2019-02-15T05:46:06.377Z,-0.19
2019-02-15T05:47:06.327Z,-0.22
2019-02-15T05:48:06.266Z,-0.16
2019-02-15T05:49:06.254Z,-0.04
2019-02-15T05:50:06.239Z,-0.08
2019-02-15T05:51:06.217Z,-0.04
2019-02-15T05:52:06.224Z,-0.18
2019-02-15T05:53:06.193Z,-0.13
2019-02-15T05:54:06.186Z,-0.13
2019-02-15T05:55:06.164Z,-0.12
2019-02-15T05:56:06.152Z,-0.13
2019-02-15T05:57:06.139Z,-0.19
2019-02-15T05:58:06.125Z,-0.26
2019-02-15T05:59:06.121Z,-0.37
2019-02-15T06:00:06.105Z,-0.22
2019-02-15T06:01:06.080Z,-0.23
2019-02-15T06:02:06.068Z,-0.26
2019-02-15T06:03:06.057Z,-0.23
2019-02-15T06:04:06.063Z,-0.19
2019-02-15T06:05:06.025Z,-0.18
2019-02-15T06:06:06.013Z,-0.11
2019-02-15T06:07:06.001Z,-0.18
2019-02-15T06:08:05.988Z,-0.27
2019-02-15T06:09:05.984Z,-0.27
2019-02-15T06:10:06.075Z,-0.18
2019-02-15T06:11:07.846Z,-0.18
2019-02-15T06:12:05.932Z,-0.22
2019-02-15T06:13:05.919Z,-0.26
2019-02-15T06:14:05.911Z,-0.24
2019-02-15T06:15:14.788Z,-0.30
2019-02-15T06:16:05.881Z,-0.27
2019-02-15T06:17:05.907Z,-0.23
2019-02-15T06:18:05.844Z,-0.18
2019-02-15T06:19:05.842Z,-0.18
2019-02-15T06:20:05.825Z,-0.15
2019-02-15T06:21:05.806Z,-0.15
2019-02-15T06:22:05.817Z,-0.23
2019-02-15T06:23:05.786Z,-0.62
2019-02-15T06:24:05.765Z,-0.77
2019-02-15T06:25:05.748Z,-0.69
2019-02-15T06:26:05.735Z,-0.47
2019-02-15T06:27:05.727Z,-0.51
2019-02-15T06:28:05.713Z,-0.54
2019-02-15T06:29:05.691Z,-0.52
2019-02-15T06:30:05.681Z,-0.55
2019-02-15T06:31:05.684Z,-0.42
2019-02-15T06:32:05.648Z,-0.36
2019-02-15T06:33:05.685Z,-0.44
2019-02-15T06:34:05.634Z,-0.39
2019-02-15T06:35:05.610Z,-0.39
2019-02-15T06:36:05.594Z,-0.34
2019-02-15T06:37:05.581Z,-0.33
2019-02-15T06:38:05.589Z,-0.26
2019-02-15T06:39:05.605Z,-0.23
2019-02-15T06:40:05.538Z,-0.22
2019-02-15T06:41:05.522Z,-0.15
2019-02-15T06:42:05.516Z,-0.15
2019-02-15T06:43:05.522Z,-0.22
2019-02-15T06:44:05.488Z,-0.13
2019-02-15T06:45:05.477Z,-0.22
2019-02-15T06:46:05.448Z,-0.34
2019-02-15T06:47:05.477Z,-0.34
2019-02-15T06:48:05.423Z,-0.44
2019-02-15T06:49:05.424Z,-0.26
2019-02-15T06:50:05.398Z,-0.27
2019-02-15T06:51:05.384Z,-0.23
2019-02-15T06:52:05.368Z,-0.29
2019-02-15T06:53:05.357Z,-0.19
2019-02-15T06:54:05.341Z,-0.29
2019-02-15T06:55:05.329Z,-0.26
2019-02-15T06:56:05.311Z,-0.22
2019-02-15T06:57:05.335Z,-0.22
2019-02-15T06:58:05.284Z,-0.19
2019-02-15T06:59:05.271Z,-0.18
2019-02-15T07:00:05.263Z,-0.15
2019-02-15T07:01:05.263Z,-0.22
2019-02-15T07:02:05.228Z,-0.19
2019-02-15T07:03:05.217Z,-0.13
2019-02-15T07:04:05.206Z,-0.01
2019-02-15T07:05:05.192Z,-0.13
2019-02-15T07:06:05.185Z,-0.05
2019-02-15T07:07:05.161Z,-0.01
2019-02-15T07:08:05.236Z,0.05
2019-02-15T07:09:05.132Z,0.10
2019-02-15T07:10:05.118Z,0.06
2019-02-15T07:11:05.118Z,0.10
2019-02-15T07:12:05.091Z,0.03
2019-02-15T07:13:05.078Z,-0.15
2019-02-15T07:14:05.066Z,0.03
2019-02-15T07:15:05.052Z,0.00
2019-02-15T07:16:05.036Z,-0.04
2019-02-15T07:17:05.026Z,0.03
2019-02-15T07:18:05.007Z,0.05
2019-02-15T07:19:04.994Z,0.03
2019-02-15T07:20:04.980Z,0.15
2019-02-15T07:21:04.960Z,0.03
2019-02-15T07:22:04.961Z,0.00
2019-02-15T07:23:04.942Z,0.13
2019-02-15T07:24:04.924Z,0.15
2019-02-15T07:25:05.005Z,0.25
2019-02-15T07:26:04.895Z,0.28
2019-02-15T07:27:04.880Z,0.27
2019-02-15T07:28:04.871Z,0.28
2019-02-15T07:29:04.856Z,0.38
2019-02-15T07:30:04.845Z,0.46
2019-02-15T07:31:04.823Z,0.42
2019-02-15T07:32:04.821Z,0.46
2019-02-15T07:33:04.799Z,0.64
2019-02-15T07:34:04.786Z,0.58
2019-02-15T07:35:04.774Z,0.60
2019-02-15T07:36:04.753Z,0.65
2019-02-15T07:37:04.740Z,0.61
2019-02-15T07:38:04.738Z,0.65
2019-02-15T07:39:04.717Z,0.79
2019-02-15T07:40:04.710Z,0.58
2019-02-15T07:41:04.701Z,0.61
2019-02-15T07:42:04.697Z,0.72
2019-02-15T07:43:04.660Z,0.78
2019-02-15T07:44:04.653Z,0.83
2019-02-15T07:45:04.638Z,0.89
2019-02-15T07:46:04.623Z,0.90
2019-02-15T07:47:04.609Z,0.92
2019-02-15T07:48:04.598Z,0.90
2019-02-15T07:49:04.583Z,0.86
2019-02-15T07:50:04.569Z,0.92
2019-02-15T07:51:09.583Z,0.90
2019-02-15T07:52:04.544Z,1.03
2019-02-15T07:53:04.528Z,1.07
2019-02-15T07:54:04.524Z,1.07
2019-02-15T07:55:04.505Z,1.08
2019-02-15T07:56:04.499Z,1.10
2019-02-15T07:57:04.483Z,1.24
2019-02-15T07:58:04.464Z,1.16
2019-02-15T07:59:04.449Z,1.22
2019-02-15T08:00:04.444Z,1.22
2019-02-15T08:01:04.417Z,1.29
2019-02-15T08:02:04.407Z,1.29
2019-02-15T08:03:04.397Z,1.37
2019-02-15T08:04:04.384Z,1.42
2019-02-15T08:05:04.366Z,1.44
2019-02-15T08:06:04.353Z,1.60
2019-02-15T08:07:04.343Z,1.54
2019-02-15T08:08:04.329Z,1.54
2019-02-15T08:09:04.326Z,1.69
2019-02-15T08:10:04.304Z,1.62
2019-02-15T08:11:04.290Z,1.72
2019-02-15T08:12:04.279Z,1.82
2019-02-15T08:13:04.259Z,1.89
2019-02-15T08:14:04.260Z,1.99
2019-02-15T08:15:04.239Z,2.08
2019-02-15T08:16:04.244Z,2.13
2019-02-15T08:17:04.209Z,2.15
2019-02-15T08:18:04.203Z,2.26
2019-02-15T08:19:04.188Z,2.28
2019-02-15T08:20:04.182Z,2.41
2019-02-15T08:21:04.184Z,2.49
2019-02-15T08:22:04.212Z,2.40
2019-02-15T08:23:04.164Z,2.46
2019-02-15T08:24:04.138Z,2.56
2019-02-15T08:25:04.118Z,2.55
2019-02-15T08:26:04.102Z,2.55
2019-02-15T08:27:04.086Z,2.63
2019-02-15T08:28:04.081Z,2.64
2019-02-15T08:29:04.066Z,2.67
2019-02-15T08:30:04.077Z,2.69
2019-02-15T08:31:04.046Z,2.81
2019-02-15T08:32:04.025Z,2.84
2019-02-15T08:33:04.015Z,2.79
2019-02-15T08:34:04.007Z,2.91
2019-02-15T08:35:03.989Z,2.91
2019-02-15T08:36:04.042Z,2.95
2019-02-15T08:37:03.971Z,3.00
2019-02-15T08:38:03.948Z,3.03
2019-02-15T08:39:03.948Z,3.06
2019-02-15T08:40:03.938Z,3.06
2019-02-15T08:41:03.934Z,3.06
2019-02-15T08:42:04.658Z,3.12
2019-02-15T08:43:03.901Z,3.16
2019-02-15T08:44:03.897Z,3.20
2019-02-15T08:45:03.879Z,3.25
2019-02-15T08:46:03.861Z,3.24
2019-02-15T08:47:03.862Z,3.31
2019-02-15T08:48:03.845Z,3.36
2019-02-15T08:49:03.825Z,3.44
2019-02-15T08:50:03.824Z,3.46
2019-02-15T08:51:03.803Z,3.53
2019-02-15T08:52:03.803Z,3.68
2019-02-15T08:53:03.780Z,3.71
2019-02-15T08:54:03.763Z,3.79
2019-02-15T08:55:03.755Z,3.79
2019-02-15T08:56:03.741Z,3.78
2019-02-15T08:57:03.730Z,3.86
2019-02-15T08:58:03.722Z,3.79
2019-02-15T08:59:03.744Z,3.88
2019-02-15T09:00:03.710Z,3.88
2019-02-15T09:01:03.677Z,3.88
2019-02-15T09:02:03.681Z,3.90
2019-02-15T09:03:03.662Z,3.86
2019-02-15T09:04:03.653Z,3.94
2019-02-15T09:05:03.640Z,3.96
2019-02-15T09:06:03.628Z,4.16
2019-02-15T09:07:03.619Z,4.04
2019-02-15T09:08:03.608Z,4.10
2019-02-15T09:09:03.592Z,4.14
2019-02-15T09:10:03.582Z,4.10
2019-02-15T09:11:03.619Z,4.21
2019-02-15T09:12:03.559Z,4.19
2019-02-15T09:13:03.562Z,4.18
2019-02-15T09:14:03.542Z,4.25
2019-02-15T09:15:03.521Z,4.40
2019-02-15T09:16:10.104Z,4.46
2019-02-15T09:17:03.503Z,4.47
2019-02-15T09:18:03.490Z,4.50
2019-02-15T09:19:03.483Z,4.50
2019-02-15T09:20:03.472Z,4.42
2019-02-15T09:21:03.462Z,4.50
2019-02-15T09:22:03.445Z,4.61
2019-02-15T09:23:03.438Z,4.62
2019-02-15T09:24:03.422Z,4.76
2019-02-15T09:25:03.413Z,4.72
2019-02-15T09:26:03.400Z,4.67
2019-02-15T09:27:03.387Z,4.65
2019-02-15T09:28:03.379Z,4.64
2019-02-15T09:29:03.374Z,4.67
2019-02-15T09:30:03.352Z,4.72
2019-02-15T09:31:03.353Z,4.77
2019-02-15T09:32:03.336Z,4.80
2019-02-15T09:33:03.324Z,4.79
2019-02-15T09:34:03.312Z,4.88
2019-02-15T09:35:03.306Z,4.98
2019-02-15T09:36:03.282Z,4.92
2019-02-15T09:37:03.281Z,5.07
2019-02-15T09:38:03.266Z,5.13
2019-02-15T09:39:03.250Z,5.25
2019-02-15T09:40:03.265Z,5.16
2019-02-15T09:41:03.236Z,5.17
2019-02-15T09:42:03.223Z,5.30
2019-02-15T09:43:03.221Z,5.35
2019-02-15T09:44:03.202Z,5.25
2019-02-15T09:45:03.187Z,5.38
2019-02-15T09:46:03.190Z,5.41
2019-02-15T09:47:03.168Z,5.52
2019-02-15T09:48:03.164Z,5.60
2019-02-15T09:49:03.148Z,5.53
2019-02-15T09:50:03.150Z,5.59
2019-02-15T09:51:03.130Z,5.59
2019-02-15T09:52:03.120Z,5.57
2019-02-15T09:53:03.107Z,5.60
2019-02-15T09:54:03.096Z,5.63
2019-02-15T09:55:03.089Z,5.66
2019-02-15T09:56:03.082Z,5.66
2019-02-15T09:57:03.073Z,5.57
2019-02-15T09:58:03.058Z,5.70
2019-02-15T09:59:03.045Z,5.70
2019-02-15T10:00:03.042Z,5.93
2019-02-15T10:01:03.024Z,5.93
2019-02-15T10:02:03.012Z,6.04
2019-02-15T10:03:03.005Z,6.09
2019-02-15T10:04:03.009Z,6.16
2019-02-15T10:05:02.983Z,6.16
2019-02-15T10:06:02.973Z,6.13
2019-02-15T10:07:02.963Z,6.18
2019-02-15T10:08:02.955Z,6.18
2019-02-15T10:09:02.936Z,6.13
2019-02-15T10:10:02.933Z,6.11
2019-02-15T10:11:02.925Z,6.06
2019-02-15T10:12:02.914Z,6.18
2019-02-15T10:13:02.904Z,6.21
2019-02-15T10:14:02.891Z,6.28
2019-02-15T10:15:02.880Z,6.11
2019-02-15T10:16:02.875Z,6.22
2019-02-15T10:17:02.862Z,6.25
2019-02-15T10:18:02.854Z,6.30
2019-02-15T10:19:02.840Z,6.33
2019-02-15T10:20:02.863Z,6.35
2019-02-15T10:21:02.825Z,6.44
2019-02-15T10:22:02.815Z,6.40
2019-02-15T10:23:02.811Z,6.43
2019-02-15T10:24:02.799Z,6.46
2019-02-15T10:25:02.789Z,6.51
2019-02-15T10:26:02.776Z,6.58
2019-02-15T10:27:02.769Z,6.51
2019-02-15T10:28:02.756Z,6.59
2019-02-15T10:29:02.749Z,6.63
2019-02-15T10:30:02.797Z,6.71
2019-02-15T10:31:02.726Z,6.79
2019-02-15T10:32:02.723Z,6.65
2019-02-15T10:33:02.702Z,6.62
2019-02-15T10:34:02.735Z,6.77
2019-02-15T10:35:02.694Z,6.89
2019-02-15T10:36:02.683Z,7.01
2019-02-15T10:37:02.675Z,7.07
2019-02-15T10:38:02.663Z,7.05
2019-02-15T10:39:02.647Z,7.16
2019-02-15T10:40:02.651Z,7.08
2019-02-15T10:41:02.635Z,7.17
2019-02-15T10:42:02.623Z,7.16
2019-02-15T10:43:02.617Z,7.22
2019-02-15T10:44:02.609Z,7.15
2019-02-15T10:45:02.619Z,7.17
2019-02-15T10:46:02.589Z,7.17
2019-02-15T10:47:02.599Z,7.20
2019-02-15T10:48:02.568Z,7.24
2019-02-15T10:49:02.560Z,7.19
2019-02-15T10:50:02.550Z,7.32
2019-02-15T10:51:02.545Z,7.66
2019-02-15T10:52:02.532Z,7.87
2019-02-15T10:53:02.548Z,7.74
2019-02-15T10:54:02.513Z,7.60
2019-02-15T10:55:02.513Z,7.63
2019-02-15T10:56:02.500Z,7.59
2019-02-15T10:57:02.489Z,7.71
2019-02-15T10:58:02.491Z,7.89
2019-02-15T10:59:02.469Z,8.18
2019-02-15T11:00:02.456Z,8.44
2019-02-15T11:01:02.448Z,8.26
2019-02-15T11:02:02.441Z,8.39
2019-02-15T11:03:02.428Z,8.54
2019-02-15T11:04:02.446Z,8.37
2019-02-15T11:05:02.416Z,8.36
2019-02-15T11:06:02.408Z,8.68
2019-02-15T11:07:02.399Z,8.54
2019-02-15T11:08:02.385Z,8.50
2019-02-15T11:09:02.381Z,8.40
2019-02-15T11:10:02.378Z,8.28
2019-02-15T11:11:02.363Z,8.25
2019-02-15T11:12:02.364Z,8.33
2019-02-15T11:13:02.344Z,8.30
2019-02-15T11:14:02.334Z,8.28
2019-02-15T11:15:02.328Z,8.29
2019-02-15T11:16:02.325Z,8.30
2019-02-15T11:17:03.174Z,8.28
2019-02-15T11:18:02.311Z,8.33
2019-02-15T11:19:02.314Z,8.36
2019-02-15T11:20:02.286Z,8.44
2019-02-15T11:21:02.281Z,8.39
2019-02-15T11:22:02.271Z,8.44
2019-02-15T11:23:02.264Z,8.42
2019-02-15T11:24:02.258Z,8.51
2019-02-15T11:25:02.262Z,8.50
2019-02-15T11:26:02.242Z,8.57
2019-02-15T11:27:02.228Z,8.58
2019-02-15T11:28:02.223Z,8.63
2019-02-15T11:29:02.217Z,8.69
2019-02-15T11:30:02.206Z,8.71
2019-02-15T11:31:02.196Z,8.73
2019-02-15T11:32:02.206Z,8.86
2019-02-15T11:33:02.181Z,8.94
2019-02-15T11:34:02.186Z,8.93
2019-02-15T11:35:02.166Z,8.99
2019-02-15T11:36:02.161Z,8.96
2019-02-15T11:37:02.153Z,9.09
2019-02-15T11:38:02.136Z,9.06
2019-02-15T11:39:02.143Z,9.09
2019-02-15T11:40:02.133Z,9.16
2019-02-15T11:41:10.697Z,9.21
2019-02-15T11:42:02.109Z,9.15
2019-02-15T11:43:02.101Z,9.27
2019-02-15T11:44:02.090Z,9.28
2019-02-15T11:45:02.090Z,9.21
2019-02-15T11:46:02.074Z,9.35
2019-02-15T11:47:02.073Z,9.39
2019-02-15T11:48:02.061Z,9.42
2019-02-15T11:49:02.055Z,9.50
2019-02-15T11:50:02.045Z,9.49
2019-02-15T11:51:02.033Z,9.48
2019-02-15T11:52:02.033Z,9.64
2019-02-15T11:53:02.022Z,9.61
2019-02-15T11:54:02.066Z,9.56
2019-02-15T11:55:02.006Z,9.49
2019-02-15T11:56:01.999Z,9.52
2019-02-15T11:57:02.090Z,9.58
2019-02-15T11:58:01.999Z,9.68
2019-02-15T11:59:01.974Z,9.64
2019-02-15T12:00:01.969Z,9.67
2019-02-15T12:01:01.962Z,9.64
2019-02-15T12:02:06.252Z,9.73
2019-02-15T12:03:01.953Z,9.70
2019-02-15T12:04:01.941Z,9.71
2019-02-15T12:05:01.936Z,9.68
2019-02-15T12:06:03.782Z,9.81
2019-02-15T12:07:01.919Z,9.94
2019-02-15T12:08:01.923Z,9.97
2019-02-15T12:09:01.909Z,10.00
2019-02-15T12:10:01.893Z,10.07
2019-02-15T12:11:01.888Z,10.06
2019-02-15T12:12:10.132Z,9.97
2019-02-15T12:13:01.883Z,10.06
2019-02-15T12:14:01.868Z,10.18
2019-02-15T12:15:02.016Z,10.17
2019-02-15T12:16:01.858Z,10.18
2019-02-15T12:17:05.661Z,10.21
2019-02-15T12:18:01.840Z,10.25
2019-02-15T12:19:01.835Z,10.28
2019-02-15T12:20:01.828Z,10.39
2019-02-15T12:21:01.820Z,10.43
2019-02-15T12:22:01.813Z,10.44
2019-02-15T12:23:01.805Z,10.39
2019-02-15T12:24:01.798Z,10.51
2019-02-15T12:25:01.790Z,10.52
2019-02-15T12:26:01.800Z,10.59
2019-02-15T12:27:01.781Z,10.51
2019-02-15T12:28:01.773Z,10.55
2019-02-15T12:29:01.774Z,10.70
2019-02-15T12:30:01.758Z,10.70
2019-02-15T12:31:01.751Z,10.71
2019-02-15T12:32:01.744Z,10.73
2019-02-15T12:33:01.741Z,10.73
2019-02-15T12:34:01.743Z,10.83
2019-02-15T12:35:01.722Z,10.83
2019-02-15T12:36:01.712Z,10.88
2019-02-15T12:37:01.711Z,10.86
2019-02-15T12:38:01.938Z,10.96
2019-02-15T12:39:01.706Z,11.02
2019-02-15T12:40:01.690Z,11.10
2019-02-15T12:41:01.680Z,11.13
2019-02-15T12:42:01.683Z,11.03
2019-02-15T12:43:01.675Z,10.86
2019-02-15T12:44:01.681Z,10.99
2019-02-15T12:45:01.664Z,11.10
2019-02-15T12:46:01.654Z,11.19
2019-02-15T12:47:01.650Z,11.14
2019-02-15T12:48:01.647Z,11.17
2019-02-15T12:49:01.637Z,11.24
2019-02-15T12:50:01.621Z,11.24
2019-02-15T12:51:01.617Z,11.19
2019-02-15T12:52:01.627Z,11.25
2019-02-15T12:53:01.609Z,11.17
2019-02-15T12:54:01.604Z,11.20
2019-02-15T12:55:03.282Z,11.20
2019-02-15T12:56:01.595Z,11.36
2019-02-15T12:57:01.580Z,11.44
2019-02-15T12:58:01.575Z,11.39
2019-02-15T12:59:01.573Z,11.47
2019-02-15T13:00:01.574Z,11.35
2019-02-15T13:01:01.559Z,11.38
2019-02-15T13:02:01.553Z,11.28
2019-02-15T13:03:01.550Z,11.29
2019-02-15T13:04:01.550Z,11.36
2019-02-15T13:05:01.550Z,11.44
2019-02-15T13:06:01.535Z,11.46
2019-02-15T13:07:01.544Z,11.68
2019-02-15T13:08:01.518Z,11.68
2019-02-15T13:09:01.506Z,11.80
2019-02-15T13:10:01.498Z,11.80
2019-02-15T13:11:01.494Z,11.80
2019-02-15T13:12:01.489Z,11.83
2019-02-15T13:13:01.489Z,11.71
2019-02-15T13:14:01.485Z,12.51
2019-02-15T13:15:01.474Z,12.71
2019-02-15T13:16:01.474Z,13.17
2019-02-15T13:17:01.466Z,13.17
2019-02-15T13:18:01.459Z,13.14
2019-02-15T13:19:01.458Z,13.22
2019-02-15T13:20:01.450Z,13.09
2019-02-15T13:21:01.443Z,12.97
2019-02-15T13:22:01.437Z,12.81
2019-02-15T13:23:01.430Z,12.79
2019-02-15T13:24:01.918Z,12.71
2019-02-15T13:25:01.425Z,12.63
2019-02-15T13:26:08.254Z,12.70
2019-02-15T13:27:01.454Z,12.81
2019-02-15T13:28:01.405Z,12.92
2019-02-15T13:29:01.413Z,13.33
2019-02-15T13:30:01.398Z,13.47
2019-02-15T13:31:01.388Z,13.49
2019-02-15T13:32:01.386Z,13.41